sensor_id;sensor_type;location;lat;lon;timestamp;P1;durP1;ratioP1;P2;durP2;ratioP2
70924;SDS011;58577;52.410;13.242;2022-10-31T00:00:00;42.50;;;31.85;;
70924;SDS011;58577;52.410;13.242;2022-10-31T00:02:46;44.67;;;31.67;;
70924;SDS011;58577;52.410;13.242;2022-10-31T00:05:32;42.63;;;30.58;;
70924;SDS011;58577;52.410;13.242;2022-10-31T00:08:18;46.63;;;32.70;;
70924;SDS011;58577;52.410;13.242;2022-10-31T00:11:07;44.33;;;31.90;;
70924;SDS011;58577;52.410;13.242;2022-10-31T00:13:54;42.33;;;30.10;;
70924;SDS011;58577;52.410;13.242;2022-10-31T00:16:40;49.05;;;33.70;;
70924;SDS011;58577;52.410;13.242;2022-10-31T00:19:26;44.33;;;31.45;;
70924;SDS011;58577;52.410;13.242;2022-10-31T00:22:12;45.58;;;33.67;;
70924;SDS011;58577;52.410;13.242;2022-10-31T00:24:58;43.15;;;31.83;;
70924;SDS011;58577;52.410;13.242;2022-10-31T00:27:44;42.28;;;29.40;;
70924;SDS011;58577;52.410;13.242;2022-10-31T00:30:30;49.50;;;31.02;;
70924;SDS011;58577;52.410;13.242;2022-10-31T00:33:16;42.65;;;28.83;;
70924;SDS011;58577;52.410;13.242;2022-10-31T00:36:02;45.85;;;31.13;;
70924;SDS011;58577;52.410;13.242;2022-10-31T00:38:48;43.72;;;30.50;;
70924;SDS011;58577;52.410;13.242;2022-10-31T00:41:33;42.05;;;28.10;;
70924;SDS011;58577;52.410;13.242;2022-10-31T00:44:19;39.50;;;28.67;;
70924;SDS011;58577;52.410;13.242;2022-10-31T00:47:05;39.90;;;28.17;;
70924;SDS011;58577;52.410;13.242;2022-10-31T00:49:51;52.15;;;33.38;;
70924;SDS011;58577;52.410;13.242;2022-10-31T00:52:37;45.60;;;30.77;;
70924;SDS011;58577;52.410;13.242;2022-10-31T00:55:22;44.50;;;27.27;;
70924;SDS011;58577;52.410;13.242;2022-10-31T00:58:08;45.42;;;30.40;;
70924;SDS011;58577;52.410;13.242;2022-10-31T01:00:54;44.50;;;28.50;;
70924;SDS011;58577;52.410;13.242;2022-10-31T01:03:42;36.72;;;26.13;;
70924;SDS011;58577;52.410;13.242;2022-10-31T01:06:31;40.45;;;26.88;;
70924;SDS011;58577;52.410;13.242;2022-10-31T01:09:17;44.40;;;25.98;;
70924;SDS011;58577;52.410;13.242;2022-10-31T01:12:02;38.50;;;26.58;;
70924;SDS011;58577;52.410;13.242;2022-10-31T01:14:48;37.80;;;25.45;;
70924;SDS011;58577;52.410;13.242;2022-10-31T01:17:37;39.10;;;26.15;;
70924;SDS011;58577;52.410;13.242;2022-10-31T01:20:23;37.28;;;24.92;;
70924;SDS011;58577;52.410;13.242;2022-10-31T01:23:08;39.97;;;26.05;;
70924;SDS011;58577;52.410;13.242;2022-10-31T01:26:05;39.45;;;25.58;;
70924;SDS011;58577;52.410;13.242;2022-10-31T01:28:54;41.63;;;25.58;;
70924;SDS011;58577;52.410;13.242;2022-10-31T01:31:41;36.35;;;24.38;;
70924;SDS011;58577;52.410;13.242;2022-10-31T01:34:27;38.20;;;24.38;;
70924;SDS011;58577;52.410;13.242;2022-10-31T01:37:13;38.50;;;25.50;;
70924;SDS011;58577;52.410;13.242;2022-10-31T01:39:59;40.35;;;25.85;;
70924;SDS011;58577;52.410;13.242;2022-10-31T01:42:45;42.35;;;25.75;;
70924;SDS011;58577;52.410;13.242;2022-10-31T01:45:30;38.30;;;25.50;;
70924;SDS011;58577;52.410;13.242;2022-10-31T01:48:17;40.95;;;26.05;;
70924;SDS011;58577;52.410;13.242;2022-10-31T01:51:06;39.35;;;26.40;;
70924;SDS011;58577;52.410;13.242;2022-10-31T01:53:58;38.67;;;24.27;;
70924;SDS011;58577;52.410;13.242;2022-10-31T01:56:48;36.05;;;23.15;;
70924;SDS011;58577;52.410;13.242;2022-10-31T01:59:40;34.53;;;23.75;;
70924;SDS011;58577;52.410;13.242;2022-10-31T02:02:29;37.22;;;23.50;;
70924;SDS011;58577;52.410;13.242;2022-10-31T02:05:17;35.13;;;23.52;;
70924;SDS011;58577;52.410;13.242;2022-10-31T02:10:55;38.38;;;22.95;;
70924;SDS011;58577;52.410;13.242;2022-10-31T02:13:43;34.25;;;22.30;;
70924;SDS011;58577;52.410;13.242;2022-10-31T02:16:29;38.30;;;23.13;;
70924;SDS011;58577;52.410;13.242;2022-10-31T02:19:17;35.38;;;22.35;;
70924;SDS011;58577;52.410;13.242;2022-10-31T02:22:14;34.08;;;21.60;;
70924;SDS011;58577;52.410;13.242;2022-10-31T02:28:33;31.58;;;19.27;;
70924;SDS011;58577;52.410;13.242;2022-10-31T02:34:40;31.30;;;20.58;;
70924;SDS011;58577;52.410;13.242;2022-10-31T02:44:05;29.45;;;19.30;;
70924;SDS011;58577;52.410;13.242;2022-10-31T02:47:00;33.15;;;20.80;;
70924;SDS011;58577;52.410;13.242;2022-10-31T02:49:56;36.90;;;21.95;;
70924;SDS011;58577;52.410;13.242;2022-10-31T02:53:06;34.38;;;20.60;;
70924;SDS011;58577;52.410;13.242;2022-10-31T02:55:59;35.42;;;21.05;;
70924;SDS011;58577;52.410;13.242;2022-10-31T02:58:51;38.30;;;22.90;;
70924;SDS011;58577;52.410;13.242;2022-10-31T03:02:25;34.45;;;21.33;;
70924;SDS011;58577;52.410;13.242;2022-10-31T03:11:21;38.28;;;22.38;;
70924;SDS011;58577;52.410;13.242;2022-10-31T03:14:14;36.15;;;21.90;;
70924;SDS011;58577;52.410;13.242;2022-10-31T03:17:14;34.55;;;22.45;;
70924;SDS011;58577;52.410;13.242;2022-10-31T03:20:08;39.35;;;23.83;;
70924;SDS011;58577;52.410;13.242;2022-10-31T03:22:55;43.05;;;24.30;;
70924;SDS011;58577;52.410;13.242;2022-10-31T03:25:43;39.97;;;23.75;;
70924;SDS011;58577;52.410;13.242;2022-10-31T03:28:33;34.38;;;21.92;;
70924;SDS011;58577;52.410;13.242;2022-10-31T03:31:26;34.90;;;21.27;;
70924;SDS011;58577;52.410;13.242;2022-10-31T03:34:17;39.22;;;22.60;;
70924;SDS011;58577;52.410;13.242;2022-10-31T03:37:06;40.88;;;22.15;;
70924;SDS011;58577;52.410;13.242;2022-10-31T03:39:55;35.40;;;22.73;;
70924;SDS011;58577;52.410;13.242;2022-10-31T03:42:46;34.47;;;20.85;;
70924;SDS011;58577;52.410;13.242;2022-10-31T03:45:43;33.08;;;19.85;;
70924;SDS011;58577;52.410;13.242;2022-10-31T03:48:31;36.28;;;23.02;;
70924;SDS011;58577;52.410;13.242;2022-10-31T03:54:25;36.40;;;20.85;;
70924;SDS011;58577;52.410;13.242;2022-10-31T03:57:39;32.92;;;22.05;;
70924;SDS011;58577;52.410;13.242;2022-10-31T04:00:31;33.10;;;21.65;;
70924;SDS011;58577;52.410;13.242;2022-10-31T04:03:24;37.63;;;21.77;;
70924;SDS011;58577;52.410;13.242;2022-10-31T04:06:14;35.50;;;22.05;;
70924;SDS011;58577;52.410;13.242;2022-10-31T04:09:04;38.45;;;23.50;;
70924;SDS011;58577;52.410;13.242;2022-10-31T04:11:54;37.13;;;22.25;;
70924;SDS011;58577;52.410;13.242;2022-10-31T04:14:54;38.20;;;22.95;;
70924;SDS011;58577;52.410;13.242;2022-10-31T04:17:42;34.05;;;20.80;;
70924;SDS011;58577;52.410;13.242;2022-10-31T04:20:32;34.65;;;21.67;;
70924;SDS011;58577;52.410;13.242;2022-10-31T04:23:20;38.05;;;22.55;;
70924;SDS011;58577;52.410;13.242;2022-10-31T04:26:11;36.00;;;21.48;;
70924;SDS011;58577;52.410;13.242;2022-10-31T04:28:58;43.22;;;23.80;;
70924;SDS011;58577;52.410;13.242;2022-10-31T04:31:45;38.85;;;22.42;;
70924;SDS011;58577;52.410;13.242;2022-10-31T04:34:31;40.88;;;23.20;;
70924;SDS011;58577;52.410;13.242;2022-10-31T04:37:17;37.80;;;23.90;;
70924;SDS011;58577;52.410;13.242;2022-10-31T04:40:03;39.75;;;23.63;;
70924;SDS011;58577;52.410;13.242;2022-10-31T04:43:28;36.53;;;21.58;;
70924;SDS011;58577;52.410;13.242;2022-10-31T04:46:13;37.50;;;21.73;;
70924;SDS011;58577;52.410;13.242;2022-10-31T04:48:59;38.20;;;20.85;;
70924;SDS011;58577;52.410;13.242;2022-10-31T04:51:45;36.97;;;20.90;;
70924;SDS011;58577;52.410;13.242;2022-10-31T04:54:32;38.72;;;23.33;;
70924;SDS011;58577;52.410;13.242;2022-10-31T04:57:40;40.20;;;21.35;;
70924;SDS011;58577;52.410;13.242;2022-10-31T05:00:30;36.05;;;20.63;;
70924;SDS011;58577;52.410;13.242;2022-10-31T05:03:16;31.17;;;19.33;;
70924;SDS011;58577;52.410;13.242;2022-10-31T05:06:02;34.30;;;21.38;;
70924;SDS011;58577;52.410;13.242;2022-10-31T05:08:48;31.40;;;19.02;;
70924;SDS011;58577;52.410;13.242;2022-10-31T05:11:34;34.92;;;21.30;;
70924;SDS011;58577;52.410;13.242;2022-10-31T05:14:33;32.75;;;20.33;;
70924;SDS011;58577;52.410;13.242;2022-10-31T05:17:38;34.20;;;21.05;;
70924;SDS011;58577;52.410;13.242;2022-10-31T05:20:49;33.85;;;19.65;;
70924;SDS011;58577;52.410;13.242;2022-10-31T05:23:43;35.00;;;21.70;;
70924;SDS011;58577;52.410;13.242;2022-10-31T05:26:28;33.83;;;19.33;;
70924;SDS011;58577;52.410;13.242;2022-10-31T05:29:15;32.78;;;19.95;;
70924;SDS011;58577;52.410;13.242;2022-10-31T05:32:00;38.10;;;20.60;;
70924;SDS011;58577;52.410;13.242;2022-10-31T05:35:23;36.25;;;20.70;;
70924;SDS011;58577;52.410;13.242;2022-10-31T05:38:46;36.35;;;20.52;;
70924;SDS011;58577;52.410;13.242;2022-10-31T05:41:44;35.05;;;19.75;;
70924;SDS011;58577;52.410;13.242;2022-10-31T05:44:39;36.72;;;20.52;;
70924;SDS011;58577;52.410;13.242;2022-10-31T05:47:33;37.08;;;20.27;;
70924;SDS011;58577;52.410;13.242;2022-10-31T05:50:37;38.72;;;19.33;;
70924;SDS011;58577;52.410;13.242;2022-10-31T05:53:28;34.05;;;19.27;;
70924;SDS011;58577;52.410;13.242;2022-10-31T05:56:14;34.75;;;18.77;;
70924;SDS011;58577;52.410;13.242;2022-10-31T05:59:00;34.85;;;18.80;;
70924;SDS011;58577;52.410;13.242;2022-10-31T06:01:46;36.92;;;19.45;;
70924;SDS011;58577;52.410;13.242;2022-10-31T06:04:45;33.92;;;18.70;;
70924;SDS011;58577;52.410;13.242;2022-10-31T06:07:32;32.35;;;17.80;;
70924;SDS011;58577;52.410;13.242;2022-10-31T06:10:22;31.17;;;16.92;;
70924;SDS011;58577;52.410;13.242;2022-10-31T06:13:12;28.95;;;17.40;;
70924;SDS011;58577;52.410;13.242;2022-10-31T06:16:11;32.00;;;16.75;;
70924;SDS011;58577;52.410;13.242;2022-10-31T06:18:58;31.58;;;16.35;;
70924;SDS011;58577;52.410;13.242;2022-10-31T06:21:45;33.15;;;16.77;;
70924;SDS011;58577;52.410;13.242;2022-10-31T06:24:30;34.30;;;18.52;;
70924;SDS011;58577;52.410;13.242;2022-10-31T06:27:49;34.55;;;18.52;;
70924;SDS011;58577;52.410;13.242;2022-10-31T06:30:35;37.03;;;19.23;;
70924;SDS011;58577;52.410;13.242;2022-10-31T06:33:21;37.58;;;19.40;;
70924;SDS011;58577;52.410;13.242;2022-10-31T06:36:15;35.20;;;18.55;;
70924;SDS011;58577;52.410;13.242;2022-10-31T06:39:01;35.50;;;18.52;;
70924;SDS011;58577;52.410;13.242;2022-10-31T06:41:47;32.88;;;17.23;;
70924;SDS011;58577;52.410;13.242;2022-10-31T06:44:34;31.58;;;17.75;;
70924;SDS011;58577;52.410;13.242;2022-10-31T06:47:39;30.60;;;16.05;;
70924;SDS011;58577;52.410;13.242;2022-10-31T06:50:27;30.05;;;16.80;;
70924;SDS011;58577;52.410;13.242;2022-10-31T06:53:13;30.08;;;17.92;;
70924;SDS011;58577;52.410;13.242;2022-10-31T06:55:59;35.03;;;17.73;;
70924;SDS011;58577;52.410;13.242;2022-10-31T06:58:45;37.33;;;20.15;;
70924;SDS011;58577;52.410;13.242;2022-10-31T07:01:32;32.15;;;18.23;;
70924;SDS011;58577;52.410;13.242;2022-10-31T07:04:18;29.25;;;16.48;;
70924;SDS011;58577;52.410;13.242;2022-10-31T07:07:04;31.05;;;17.52;;
70924;SDS011;58577;52.410;13.242;2022-10-31T07:09:51;31.95;;;17.75;;
70924;SDS011;58577;52.410;13.242;2022-10-31T07:12:40;33.90;;;17.95;;
70924;SDS011;58577;52.410;13.242;2022-10-31T07:15:28;31.58;;;17.70;;
70924;SDS011;58577;52.410;13.242;2022-10-31T07:18:17;32.92;;;17.05;;
70924;SDS011;58577;52.410;13.242;2022-10-31T07:21:03;33.58;;;17.95;;
70924;SDS011;58577;52.410;13.242;2022-10-31T07:23:49;30.67;;;16.50;;
70924;SDS011;58577;52.410;13.242;2022-10-31T07:26:53;29.88;;;17.58;;
70924;SDS011;58577;52.410;13.242;2022-10-31T07:29:39;29.65;;;17.05;;
70924;SDS011;58577;52.410;13.242;2022-10-31T07:32:27;30.85;;;16.80;;
70924;SDS011;58577;52.410;13.242;2022-10-31T07:35:17;29.88;;;17.25;;
70924;SDS011;58577;52.410;13.242;2022-10-31T07:40:53;34.45;;;18.10;;
70924;SDS011;58577;52.410;13.242;2022-10-31T07:43:39;34.53;;;18.65;;
70924;SDS011;58577;52.410;13.242;2022-10-31T07:46:37;33.72;;;18.85;;
70924;SDS011;58577;52.410;13.242;2022-10-31T07:49:41;32.80;;;17.50;;
70924;SDS011;58577;52.410;13.242;2022-10-31T07:52:45;36.90;;;18.85;;
70924;SDS011;58577;52.410;13.242;2022-10-31T07:55:50;33.60;;;17.55;;
70924;SDS011;58577;52.410;13.242;2022-10-31T07:58:38;37.72;;;19.10;;
70924;SDS011;58577;52.410;13.242;2022-10-31T08:01:23;29.98;;;18.30;;
70924;SDS011;58577;52.410;13.242;2022-10-31T08:04:29;35.63;;;19.13;;
70924;SDS011;58577;52.410;13.242;2022-10-31T08:07:41;38.42;;;18.77;;
70924;SDS011;58577;52.410;13.242;2022-10-31T08:10:36;36.63;;;19.50;;
70924;SDS011;58577;52.410;13.242;2022-10-31T08:13:22;32.42;;;18.67;;
70924;SDS011;58577;52.410;13.242;2022-10-31T08:16:10;32.78;;;18.92;;
70924;SDS011;58577;52.410;13.242;2022-10-31T08:19:03;36.03;;;18.70;;
70924;SDS011;58577;52.410;13.242;2022-10-31T08:21:55;34.20;;;17.33;;
70924;SDS011;58577;52.410;13.242;2022-10-31T08:24:41;32.15;;;17.90;;
70924;SDS011;58577;52.410;13.242;2022-10-31T08:27:27;33.22;;;18.20;;
70924;SDS011;58577;52.410;13.242;2022-10-31T08:30:15;33.08;;;19.40;;
70924;SDS011;58577;52.410;13.242;2022-10-31T08:33:14;33.00;;;18.00;;
70924;SDS011;58577;52.410;13.242;2022-10-31T08:36:20;34.28;;;17.35;;
70924;SDS011;58577;52.410;13.242;2022-10-31T08:39:12;31.30;;;17.48;;
70924;SDS011;58577;52.410;13.242;2022-10-31T08:41:58;31.10;;;17.45;;
70924;SDS011;58577;52.410;13.242;2022-10-31T08:44:44;32.85;;;18.42;;
70924;SDS011;58577;52.410;13.242;2022-10-31T08:47:30;32.42;;;18.10;;
70924;SDS011;58577;52.410;13.242;2022-10-31T08:50:16;30.25;;;18.08;;
70924;SDS011;58577;52.410;13.242;2022-10-31T08:53:08;36.17;;;18.40;;
70924;SDS011;58577;52.410;13.242;2022-10-31T08:55:58;30.45;;;17.95;;
70924;SDS011;58577;52.410;13.242;2022-10-31T08:58:44;29.98;;;17.63;;
70924;SDS011;58577;52.410;13.242;2022-10-31T09:01:31;31.00;;;18.33;;
70924;SDS011;58577;52.410;13.242;2022-10-31T09:04:17;29.20;;;17.45;;
70924;SDS011;58577;52.410;13.242;2022-10-31T09:07:03;28.05;;;16.95;;
70924;SDS011;58577;52.410;13.242;2022-10-31T09:09:49;27.50;;;16.58;;
70924;SDS011;58577;52.410;13.242;2022-10-31T09:12:36;34.85;;;18.92;;
70924;SDS011;58577;52.410;13.242;2022-10-31T09:15:48;30.48;;;17.58;;
70924;SDS011;58577;52.410;13.242;2022-10-31T09:18:43;29.02;;;14.80;;
70924;SDS011;58577;52.410;13.242;2022-10-31T09:21:29;29.27;;;16.73;;
70924;SDS011;58577;52.410;13.242;2022-10-31T09:24:17;29.40;;;15.85;;
70924;SDS011;58577;52.410;13.242;2022-10-31T09:27:03;27.80;;;15.40;;
70924;SDS011;58577;52.410;13.242;2022-10-31T09:29:50;28.83;;;15.70;;
70924;SDS011;58577;52.410;13.242;2022-10-31T09:32:37;28.58;;;15.15;;
70924;SDS011;58577;52.410;13.242;2022-10-31T09:35:25;30.33;;;16.50;;
70924;SDS011;58577;52.410;13.242;2022-10-31T09:38:14;29.80;;;15.65;;
70924;SDS011;58577;52.410;13.242;2022-10-31T09:57:02;28.73;;;14.85;;
70924;SDS011;58577;52.410;13.242;2022-10-31T09:59:49;28.13;;;15.32;;
70924;SDS011;58577;52.410;13.242;2022-10-31T10:02:49;27.50;;;14.30;;
70924;SDS011;58577;52.410;13.242;2022-10-31T10:09:19;27.42;;;14.25;;
70924;SDS011;58577;52.410;13.242;2022-10-31T10:18:56;25.58;;;16.48;;
70924;SDS011;58577;52.410;13.242;2022-10-31T10:31:10;30.60;;;15.13;;
70924;SDS011;58577;52.410;13.242;2022-10-31T10:37:04;28.26;;;15.94;;
70924;SDS011;58577;52.410;13.242;2022-10-31T10:40:01;29.30;;;16.40;;
70924;SDS011;58577;52.410;13.242;2022-10-31T10:43:19;32.88;;;17.52;;
70924;SDS011;58577;52.410;13.242;2022-10-31T10:49:31;31.33;;;17.48;;
70924;SDS011;58577;52.410;13.242;2022-10-31T10:55:48;31.88;;;17.20;;
70924;SDS011;58577;52.410;13.242;2022-10-31T10:58:40;32.58;;;17.45;;
70924;SDS011;58577;52.410;13.242;2022-10-31T11:01:27;36.22;;;18.15;;
70924;SDS011;58577;52.410;13.242;2022-10-31T11:07:12;28.85;;;16.55;;
70924;SDS011;58577;52.410;13.242;2022-10-31T11:10:04;31.55;;;17.83;;
70924;SDS011;58577;52.410;13.242;2022-10-31T11:15:57;30.33;;;18.17;;
70924;SDS011;58577;52.410;13.242;2022-10-31T11:18:46;32.30;;;19.60;;
70924;SDS011;58577;52.410;13.242;2022-10-31T11:21:32;34.05;;;19.55;;
70924;SDS011;58577;52.410;13.242;2022-10-31T11:24:21;33.67;;;21.02;;
70924;SDS011;58577;52.410;13.242;2022-10-31T11:27:23;34.53;;;19.02;;
70924;SDS011;58577;52.410;13.242;2022-10-31T11:30:11;34.47;;;19.80;;
70924;SDS011;58577;52.410;13.242;2022-10-31T11:32:58;33.15;;;18.95;;
70924;SDS011;58577;52.410;13.242;2022-10-31T11:35:44;32.63;;;17.95;;
70924;SDS011;58577;52.410;13.242;2022-10-31T11:38:32;31.33;;;18.95;;
70924;SDS011;58577;52.410;13.242;2022-10-31T11:41:25;31.13;;;18.15;;
70924;SDS011;58577;52.410;13.242;2022-10-31T11:44:21;29.00;;;17.58;;
70924;SDS011;58577;52.410;13.242;2022-10-31T11:47:11;32.47;;;17.23;;
70924;SDS011;58577;52.410;13.242;2022-10-31T11:50:08;27.92;;;17.15;;
70924;SDS011;58577;52.410;13.242;2022-10-31T11:52:57;32.13;;;17.02;;
70924;SDS011;58577;52.410;13.242;2022-10-31T11:55:42;27.30;;;15.55;;
70924;SDS011;58577;52.410;13.242;2022-10-31T11:58:30;31.23;;;16.20;;
70924;SDS011;58577;52.410;13.242;2022-10-31T12:01:26;30.48;;;17.45;;
70924;SDS011;58577;52.410;13.242;2022-10-31T12:04:13;27.45;;;15.85;;
70924;SDS011;58577;52.410;13.242;2022-10-31T12:06:59;28.27;;;16.00;;
70924;SDS011;58577;52.410;13.242;2022-10-31T12:09:45;28.40;;;15.77;;
70924;SDS011;58577;52.410;13.242;2022-10-31T12:15:40;28.65;;;16.40;;
70924;SDS011;58577;52.410;13.242;2022-10-31T12:18:51;31.30;;;17.20;;
70924;SDS011;58577;52.410;13.242;2022-10-31T12:22:52;27.02;;;15.73;;
70924;SDS011;58577;52.410;13.242;2022-10-31T12:25:28;28.38;;;14.25;;
70924;SDS011;58577;52.410;13.242;2022-10-31T12:43:36;31.60;;;18.00;;
70924;SDS011;58577;52.410;13.242;2022-10-31T12:46:43;32.92;;;17.70;;
70924;SDS011;58577;52.410;13.242;2022-10-31T12:58:53;29.67;;;17.73;;
70924;SDS011;58577;52.410;13.242;2022-10-31T13:01:47;45.75;;;27.35;;
70924;SDS011;58577;52.410;13.242;2022-10-31T13:04:42;33.72;;;20.02;;
70924;SDS011;58577;52.410;13.242;2022-10-31T13:07:43;31.65;;;19.30;;
70924;SDS011;58577;52.410;13.242;2022-10-31T13:17:14;35.70;;;19.92;;
70924;SDS011;58577;52.410;13.242;2022-10-31T13:20:22;35.50;;;19.15;;
70924;SDS011;58577;52.410;13.242;2022-10-31T13:23:29;32.70;;;18.85;;
70924;SDS011;58577;52.410;13.242;2022-10-31T13:26:34;34.10;;;19.20;;
70924;SDS011;58577;52.410;13.242;2022-10-31T13:29:31;35.25;;;19.70;;
70924;SDS011;58577;52.410;13.242;2022-10-31T13:32:21;36.47;;;20.13;;
70924;SDS011;58577;52.410;13.242;2022-10-31T13:35:10;33.47;;;19.23;;
70924;SDS011;58577;52.410;13.242;2022-10-31T13:38:21;36.05;;;20.83;;
70924;SDS011;58577;52.410;13.242;2022-10-31T13:41:26;38.17;;;20.65;;
70924;SDS011;58577;52.410;13.242;2022-10-31T13:44:27;36.60;;;20.40;;
70924;SDS011;58577;52.410;13.242;2022-10-31T13:47:27;38.17;;;22.40;;
70924;SDS011;58577;52.410;13.242;2022-10-31T13:53:13;39.70;;;21.65;;
70924;SDS011;58577;52.410;13.242;2022-10-31T14:01:58;40.60;;;22.95;;
70924;SDS011;58577;52.410;13.242;2022-10-31T14:05:18;42.03;;;23.55;;
70924;SDS011;58577;52.410;13.242;2022-10-31T14:08:17;42.85;;;24.65;;
70924;SDS011;58577;52.410;13.242;2022-10-31T14:11:08;44.13;;;24.33;;
70924;SDS011;58577;52.410;13.242;2022-10-31T14:14:03;43.72;;;24.38;;
70924;SDS011;58577;52.410;13.242;2022-10-31T14:16:57;48.70;;;26.73;;
70924;SDS011;58577;52.410;13.242;2022-10-31T14:19:55;46.50;;;25.75;;
70924;SDS011;58577;52.410;13.242;2022-10-31T14:23:13;46.60;;;24.77;;
70924;SDS011;58577;52.410;13.242;2022-10-31T14:26:21;43.65;;;26.02;;
70924;SDS011;58577;52.410;13.242;2022-10-31T14:35:01;53.28;;;27.98;;
70924;SDS011;58577;52.410;13.242;2022-10-31T14:38:11;54.55;;;27.92;;
70924;SDS011;58577;52.410;13.242;2022-10-31T14:50:03;49.15;;;26.42;;
70924;SDS011;58577;52.410;13.242;2022-10-31T14:53:00;52.80;;;25.58;;
70924;SDS011;58577;52.410;13.242;2022-10-31T14:55:49;53.17;;;26.80;;
70924;SDS011;58577;52.410;13.242;2022-10-31T14:58:42;52.88;;;28.63;;
70924;SDS011;58577;52.410;13.242;2022-10-31T15:01:32;52.85;;;27.45;;
70924;SDS011;58577;52.410;13.242;2022-10-31T15:04:22;55.95;;;28.27;;
70924;SDS011;58577;52.410;13.242;2022-10-31T15:07:12;53.40;;;28.05;;
70924;SDS011;58577;52.410;13.242;2022-10-31T15:10:03;59.78;;;29.67;;
70924;SDS011;58577;52.410;13.242;2022-10-31T15:12:51;56.73;;;28.77;;
70924;SDS011;58577;52.410;13.242;2022-10-31T15:15:37;65.97;;;30.08;;
70924;SDS011;58577;52.410;13.242;2022-10-31T15:18:26;62.15;;;30.58;;
70924;SDS011;58577;52.410;13.242;2022-10-31T15:21:14;64.75;;;29.52;;
70924;SDS011;58577;52.410;13.242;2022-10-31T15:24:02;62.72;;;30.85;;
70924;SDS011;58577;52.410;13.242;2022-10-31T15:26:49;68.00;;;30.45;;
70924;SDS011;58577;52.410;13.242;2022-10-31T15:29:46;66.63;;;30.73;;
70924;SDS011;58577;52.410;13.242;2022-10-31T15:32:43;69.55;;;31.80;;
70924;SDS011;58577;52.410;13.242;2022-10-31T15:35:30;62.97;;;28.48;;
70924;SDS011;58577;52.410;13.242;2022-10-31T15:38:16;70.35;;;31.95;;
70924;SDS011;58577;52.410;13.242;2022-10-31T15:41:06;63.20;;;31.08;;
70924;SDS011;58577;52.410;13.242;2022-10-31T15:44:24;74.18;;;33.53;;
70924;SDS011;58577;52.410;13.242;2022-10-31T15:47:16;68.28;;;32.92;;
70924;SDS011;58577;52.410;13.242;2022-10-31T15:50:05;64.38;;;30.83;;
70924;SDS011;58577;52.410;13.242;2022-10-31T15:53:04;70.53;;;32.25;;
70924;SDS011;58577;52.410;13.242;2022-10-31T15:55:53;70.80;;;32.08;;
70924;SDS011;58577;52.410;13.242;2022-10-31T16:01:30;74.53;;;31.70;;
70924;SDS011;58577;52.410;13.242;2022-10-31T16:04:21;74.88;;;34.33;;
70924;SDS011;58577;52.410;13.242;2022-10-31T16:13:09;70.63;;;33.70;;
70924;SDS011;58577;52.410;13.242;2022-10-31T16:15:56;86.20;;;35.58;;
70924;SDS011;58577;52.410;13.242;2022-10-31T16:18:44;75.25;;;33.38;;
70924;SDS011;58577;52.410;13.242;2022-10-31T16:21:31;78.38;;;33.67;;
70924;SDS011;58577;52.410;13.242;2022-10-31T16:24:24;74.18;;;33.63;;
70924;SDS011;58577;52.410;13.242;2022-10-31T16:27:20;74.55;;;33.20;;
70924;SDS011;58577;52.410;13.242;2022-10-31T16:30:30;78.82;;;33.72;;
70924;SDS011;58577;52.410;13.242;2022-10-31T16:33:34;73.95;;;32.47;;
70924;SDS011;58577;52.410;13.242;2022-10-31T16:36:32;71.90;;;32.00;;
70924;SDS011;58577;52.410;13.242;2022-10-31T16:39:23;88.13;;;35.40;;
70924;SDS011;58577;52.410;13.242;2022-10-31T16:42:09;78.32;;;36.28;;
70924;SDS011;58577;52.410;13.242;2022-10-31T16:44:55;82.30;;;35.33;;
70924;SDS011;58577;52.410;13.242;2022-10-31T16:47:41;81.45;;;36.13;;
70924;SDS011;58577;52.410;13.242;2022-10-31T16:50:27;90.88;;;36.17;;
70924;SDS011;58577;52.410;13.242;2022-10-31T16:53:13;91.22;;;34.40;;
70924;SDS011;58577;52.410;13.242;2022-10-31T16:56:01;88.70;;;38.05;;
70924;SDS011;58577;52.410;13.242;2022-10-31T16:58:48;82.45;;;37.10;;
70924;SDS011;58577;52.410;13.242;2022-10-31T17:01:35;72.50;;;33.80;;
70924;SDS011;58577;52.410;13.242;2022-10-31T17:04:23;91.40;;;38.40;;
70924;SDS011;58577;52.410;13.242;2022-10-31T17:07:08;104.60;;;59.17;;
70924;SDS011;58577;52.410;13.242;2022-10-31T17:09:54;78.88;;;37.85;;
70924;SDS011;58577;52.410;13.242;2022-10-31T17:12:41;92.35;;;38.30;;
70924;SDS011;58577;52.410;13.242;2022-10-31T17:15:31;95.15;;;37.70;;
70924;SDS011;58577;52.410;13.242;2022-10-31T17:18:22;84.25;;;35.97;;
70924;SDS011;58577;52.410;13.242;2022-10-31T17:21:11;83.72;;;35.63;;
70924;SDS011;58577;52.410;13.242;2022-10-31T17:24:02;101.18;;;38.50;;
70924;SDS011;58577;52.410;13.242;2022-10-31T17:26:48;87.88;;;37.95;;
70924;SDS011;58577;52.410;13.242;2022-10-31T17:29:35;142.32;;;41.35;;
70924;SDS011;58577;52.410;13.242;2022-10-31T17:32:20;150.98;;;40.88;;
70924;SDS011;58577;52.410;13.242;2022-10-31T17:35:07;137.68;;;42.10;;
70924;SDS011;58577;52.410;13.242;2022-10-31T17:37:53;110.22;;;41.60;;
70924;SDS011;58577;52.410;13.242;2022-10-31T17:40:39;117.22;;;41.15;;
70924;SDS011;58577;52.410;13.242;2022-10-31T17:43:28;107.15;;;38.83;;
70924;SDS011;58577;52.410;13.242;2022-10-31T17:46:14;109.03;;;38.75;;
70924;SDS011;58577;52.410;13.242;2022-10-31T17:49:00;109.60;;;37.88;;
70924;SDS011;58577;52.410;13.242;2022-10-31T17:51:46;90.03;;;37.13;;
70924;SDS011;58577;52.410;13.242;2022-10-31T17:54:32;102.43;;;38.13;;
70924;SDS011;58577;52.410;13.242;2022-10-31T17:57:17;118.75;;;41.47;;
70924;SDS011;58577;52.410;13.242;2022-10-31T18:00:04;142.15;;;43.53;;
70924;SDS011;58577;52.410;13.242;2022-10-31T18:02:52;113.45;;;47.92;;
70924;SDS011;58577;52.410;13.242;2022-10-31T18:05:38;141.75;;;49.60;;
70924;SDS011;58577;52.410;13.242;2022-10-31T18:08:28;234.90;;;53.22;;
70924;SDS011;58577;52.410;13.242;2022-10-31T18:11:21;126.65;;;43.95;;
70924;SDS011;58577;52.410;13.242;2022-10-31T18:14:07;153.88;;;46.20;;
70924;SDS011;58577;52.410;13.242;2022-10-31T18:16:54;144.82;;;45.63;;
70924;SDS011;58577;52.410;13.242;2022-10-31T18:19:40;165.73;;;47.42;;
70924;SDS011;58577;52.410;13.242;2022-10-31T18:22:25;122.97;;;42.90;;
70924;SDS011;58577;52.410;13.242;2022-10-31T18:25:11;106.78;;;41.92;;
70924;SDS011;58577;52.410;13.242;2022-10-31T18:27:57;125.53;;;43.83;;
70924;SDS011;58577;52.410;13.242;2022-10-31T18:30:43;167.05;;;49.13;;
70924;SDS011;58577;52.410;13.242;2022-10-31T18:33:28;115.25;;;44.40;;
70924;SDS011;58577;52.410;13.242;2022-10-31T18:36:14;156.27;;;50.00;;
70924;SDS011;58577;52.410;13.242;2022-10-31T18:39:00;192.65;;;53.80;;
70924;SDS011;58577;52.410;13.242;2022-10-31T18:41:47;129.45;;;49.35;;
70924;SDS011;58577;52.410;13.242;2022-10-31T18:44:33;145.98;;;51.03;;
70924;SDS011;58577;52.410;13.242;2022-10-31T18:47:19;200.95;;;53.67;;
70924;SDS011;58577;52.410;13.242;2022-10-31T18:50:05;171.60;;;51.70;;
70924;SDS011;58577;52.410;13.242;2022-10-31T18:52:51;144.63;;;53.13;;